Ambrosia Lake, New Mexico
Current Conditions -  °F | °C
As of 6:15 PM on Sunday 21 Dec 2014 (Local Time) from KGNT Reporting Station
Clear Clear  
Wind Chill:   Ceiling: Unl
Heat Index:   Visibility: 10mi
Dew Point: -2°   Wind: 6mph
Humidity: 63%   Direction: 320°NW
Pressure: 30"   Gusts: NA
Location:  35.2644°N, 107.733°W
Report Text: KGNT 220115Z AUTO 32005KT 10SM CLR 04/M02 A3000 RMK AO2 T00421022
Loading
Personal Weather Stations






























Interactive Weather Map New forecast layout! Learn more

10-Day Weather Forecast

Advertisements
Track Severe Weather on mobile